createdAt,value
2018-09-22T00:01:38.176Z,1.80
2018-09-22T00:04:06.318Z,1.80
2018-09-22T00:06:34.450Z,1.63
2018-09-22T00:09:02.646Z,1.30
2018-09-22T00:11:30.795Z,1.87
2018-09-22T00:13:58.930Z,1.33
2018-09-22T00:16:27.061Z,1.60
2018-09-22T00:18:55.205Z,1.17
2018-09-22T00:21:23.374Z,1.33
2018-09-22T00:23:51.530Z,1.70
2018-09-22T00:26:19.658Z,1.53
2018-09-22T00:28:47.809Z,1.50
2018-09-22T00:31:15.959Z,1.60
2018-09-22T00:33:44.102Z,1.50
2018-09-22T00:36:12.293Z,1.27
2018-09-22T00:38:40.490Z,1.37
2018-09-22T00:41:08.670Z,1.70
2018-09-22T00:43:36.838Z,2.00
2018-09-22T00:46:05.087Z,2.10
2018-09-22T00:48:33.271Z,1.83
2018-09-22T00:51:01.447Z,1.20
2018-09-22T00:53:29.610Z,1.50
2018-09-22T00:55:57.797Z,1.83
2018-09-22T00:58:25.981Z,1.43
2018-09-22T01:00:54.172Z,1.97
2018-09-22T01:03:22.378Z,1.43
2018-09-22T01:05:50.553Z,1.60
2018-09-22T01:08:18.777Z,1.67
2018-09-22T01:10:47.281Z,1.60
2018-09-22T01:13:15.446Z,1.53
2018-09-22T01:15:43.671Z,1.97
2018-09-22T01:18:11.834Z,1.73
2018-09-22T01:20:40.011Z,2.13
2018-09-22T01:23:08.180Z,2.00
2018-09-22T01:25:36.366Z,1.13
2018-09-22T01:28:04.526Z,1.20
2018-09-22T01:30:32.742Z,1.30
2018-09-22T01:33:01.001Z,2.40
2018-09-22T01:35:29.179Z,1.40
2018-09-22T01:37:57.368Z,1.33
2018-09-22T01:40:25.553Z,1.40
2018-09-22T01:42:53.746Z,1.90
2018-09-22T01:45:22.273Z,1.60
2018-09-22T01:47:50.502Z,1.40
2018-09-22T01:50:18.693Z,1.27
2018-09-22T01:52:46.841Z,1.10
2018-09-22T01:55:15.013Z,1.80
2018-09-22T01:57:43.162Z,1.87
2018-09-22T02:00:11.333Z,2.40
2018-09-22T02:02:39.489Z,1.83
2018-09-22T02:05:07.645Z,2.40
2018-09-22T02:07:35.838Z,1.57
2018-09-22T02:10:04.002Z,1.30
2018-09-22T02:12:32.154Z,1.47
2018-09-22T02:15:00.310Z,1.50
2018-09-22T02:17:28.453Z,1.40
2018-09-22T02:19:56.618Z,1.53
2018-09-22T02:22:24.785Z,1.50
2018-09-22T02:24:53.005Z,1.80
2018-09-22T02:27:21.166Z,1.77
2018-09-22T02:29:49.331Z,1.73
2018-09-22T02:32:17.537Z,1.50
2018-09-22T02:34:45.693Z,1.33
2018-09-22T02:37:13.866Z,1.20
2018-09-22T02:39:41.999Z,1.30
2018-09-22T02:42:10.165Z,1.67
2018-09-22T02:44:38.301Z,1.87
2018-09-22T02:47:06.437Z,1.60
2018-09-22T02:49:34.566Z,1.63
2018-09-22T02:52:02.716Z,1.70
2018-09-22T02:54:30.855Z,1.30
2018-09-22T02:56:59.107Z,1.77
2018-09-22T02:59:27.251Z,1.37
2018-09-22T03:01:55.430Z,1.87
2018-09-22T03:04:23.567Z,1.60
2018-09-22T03:06:51.754Z,1.50
2018-09-22T03:09:19.878Z,1.40
2018-09-22T03:11:48.057Z,1.50
2018-09-22T03:14:16.186Z,1.40
2018-09-22T03:16:44.330Z,1.67
2018-09-22T03:19:12.512Z,1.63
2018-09-22T03:21:40.646Z,1.40
2018-09-22T03:24:08.785Z,1.53
2018-09-22T03:26:36.947Z,1.57
2018-09-22T03:29:05.330Z,1.90
2018-09-22T03:31:33.474Z,1.40
2018-09-22T03:34:01.615Z,1.63
2018-09-22T03:36:29.779Z,1.50
2018-09-22T03:38:57.925Z,1.67
2018-09-22T03:41:26.078Z,1.57
2018-09-22T03:43:54.230Z,1.80
2018-09-22T03:46:22.399Z,1.50
2018-09-22T03:48:50.551Z,1.53
2018-09-22T03:51:18.722Z,1.77
2018-09-22T03:53:46.903Z,2.27
2018-09-22T03:56:15.064Z,1.57
2018-09-22T03:58:43.226Z,1.67
2018-09-22T04:01:11.411Z,1.70
2018-09-22T04:03:39.574Z,1.43
2018-09-22T04:06:07.746Z,1.50
2018-09-22T04:08:35.895Z,2.07
2018-09-22T04:11:04.049Z,1.67
2018-09-22T04:13:32.190Z,1.77
2018-09-22T04:16:00.342Z,1.70
2018-09-22T04:18:28.504Z,1.67
2018-09-22T04:20:56.715Z,2.10
2018-09-22T04:23:24.885Z,1.70
2018-09-22T04:25:53.063Z,1.50
2018-09-22T04:28:21.235Z,1.83
2018-09-22T04:30:49.430Z,1.80
2018-09-22T04:33:17.835Z,1.60
2018-09-22T04:35:45.957Z,1.67
2018-09-22T04:38:14.106Z,1.47
2018-09-22T04:40:42.258Z,1.60
2018-09-22T04:43:10.398Z,1.70
2018-09-22T04:45:38.531Z,2.00
2018-09-22T04:48:06.682Z,1.60
2018-09-22T04:50:34.826Z,1.50
2018-09-22T04:53:02.966Z,1.50
2018-09-22T04:55:31.114Z,1.77
2018-09-22T04:57:59.250Z,2.17
2018-09-22T05:00:27.379Z,1.90
2018-09-22T05:02:55.517Z,1.87
2018-09-22T05:05:23.655Z,2.17
2018-09-22T05:07:51.798Z,1.50
2018-09-22T05:10:19.970Z,2.10
2018-09-22T05:12:48.106Z,1.70
2018-09-22T05:15:16.247Z,1.87
2018-09-22T05:17:44.407Z,1.43
2018-09-22T05:20:12.593Z,1.93
2018-09-22T05:22:40.743Z,1.50
2018-09-22T05:25:08.882Z,2.10
2018-09-22T05:27:37.013Z,2.07
2018-09-22T05:30:05.167Z,1.40
2018-09-22T05:32:33.302Z,2.10
2018-09-22T05:35:01.436Z,2.33
2018-09-22T05:37:29.589Z,1.50
2018-09-22T05:39:57.733Z,1.87
2018-09-22T05:42:25.878Z,2.10
2018-09-22T05:44:54.042Z,2.07
2018-09-22T05:47:22.198Z,1.90
2018-09-22T05:49:50.346Z,2.23
2018-09-22T05:52:18.510Z,1.53
2018-09-22T05:54:46.650Z,2.57
2018-09-22T05:57:14.886Z,2.40
2018-09-22T05:59:43.061Z,2.40
2018-09-22T06:02:11.207Z,2.07
2018-09-22T06:04:39.374Z,1.70
2018-09-22T06:07:07.534Z,1.50
2018-09-22T06:09:35.736Z,1.80
2018-09-22T06:12:03.868Z,2.00
2018-09-22T06:14:32.024Z,1.33
2018-09-22T06:17:00.229Z,1.47
2018-09-22T06:19:28.398Z,1.50
2018-09-22T06:21:56.553Z,2.43
2018-09-22T06:24:24.717Z,2.13
2018-09-22T06:26:52.871Z,1.93
2018-09-22T06:29:21.046Z,1.60
2018-09-22T06:31:49.300Z,2.00
2018-09-22T06:34:17.466Z,1.67
2018-09-22T06:36:45.639Z,1.53
2018-09-22T06:39:13.802Z,1.77
2018-09-22T06:41:41.958Z,1.70
2018-09-22T06:44:10.278Z,2.10
2018-09-22T06:46:38.429Z,2.13
2018-09-22T06:49:06.603Z,1.77
2018-09-22T06:51:34.767Z,1.77
2018-09-22T06:54:02.913Z,1.27
2018-09-22T06:56:31.079Z,1.67
2018-09-22T06:58:59.243Z,1.50
2018-09-22T07:01:27.410Z,1.83
2018-09-22T07:03:55.574Z,1.70
2018-09-22T07:06:23.795Z,1.80
2018-09-22T07:08:51.869Z,1.80
2018-09-22T07:11:20.041Z,1.60
2018-09-22T07:13:48.307Z,1.50
2018-09-22T07:16:16.434Z,1.60
2018-09-22T07:18:44.587Z,1.97
2018-09-22T07:21:12.748Z,2.40
2018-09-22T07:23:40.903Z,1.70
2018-09-22T07:26:09.078Z,1.70
2018-09-22T07:28:37.234Z,1.70
2018-09-22T07:31:05.698Z,1.77
2018-09-22T07:33:33.851Z,1.70
2018-09-22T07:36:01.983Z,1.80
2018-09-22T07:38:30.114Z,1.80
2018-09-22T07:40:58.272Z,1.90
2018-09-22T07:43:26.415Z,1.80
2018-09-22T07:45:54.698Z,1.50
2018-09-22T07:48:22.707Z,1.63
2018-09-22T07:50:50.841Z,1.90
2018-09-22T07:53:19.030Z,1.83
2018-09-22T07:55:47.170Z,1.20
2018-09-22T07:58:15.302Z,1.30
2018-09-22T08:00:43.441Z,1.60
2018-09-22T08:03:11.591Z,1.50
2018-09-22T08:05:39.750Z,1.50
2018-09-22T08:08:07.878Z,1.63
2018-09-22T08:10:36.018Z,1.83
2018-09-22T08:13:04.180Z,2.57
2018-09-22T08:15:32.332Z,1.70
2018-09-22T08:18:00.473Z,1.50
2018-09-22T08:20:28.634Z,1.57
2018-09-22T08:22:56.782Z,2.30
2018-09-22T08:25:24.918Z,1.50
2018-09-22T08:27:53.076Z,1.33
2018-09-22T08:30:21.226Z,1.20
2018-09-22T08:32:49.378Z,1.40
2018-09-22T08:35:17.538Z,1.20
2018-09-22T08:37:45.686Z,1.30
2018-09-22T08:40:13.818Z,1.40
2018-09-22T08:42:41.998Z,1.30
2018-09-22T08:45:10.130Z,1.20
2018-09-22T08:47:38.777Z,1.63
2018-09-22T08:50:07.078Z,1.60
2018-09-22T08:52:35.198Z,1.37
2018-09-22T08:55:03.358Z,1.40
2018-09-22T08:57:31.478Z,1.37
2018-09-22T08:59:59.630Z,1.10
2018-09-22T09:02:27.771Z,1.83
2018-09-22T09:04:55.955Z,1.13
2018-09-22T09:07:24.073Z,1.10
2018-09-22T09:09:52.221Z,1.40
2018-09-22T09:12:20.362Z,1.67
2018-09-22T09:14:48.489Z,1.47
2018-09-22T09:17:16.634Z,1.27
2018-09-22T09:19:44.783Z,1.73
2018-09-22T09:22:12.978Z,1.20
2018-09-22T09:24:41.139Z,1.60
2018-09-22T09:27:09.277Z,2.03
2018-09-22T09:29:37.430Z,1.70
2018-09-22T09:32:05.566Z,1.30
2018-09-22T09:34:33.699Z,1.50
2018-09-22T09:37:01.866Z,1.20
2018-09-22T09:39:30.018Z,1.30
2018-09-22T09:41:58.205Z,1.40
2018-09-22T09:44:26.358Z,1.30
2018-09-22T09:46:54.522Z,1.23
2018-09-22T09:49:22.669Z,1.10
2018-09-22T09:51:50.834Z,2.03
2018-09-22T09:54:19.046Z,1.23
2018-09-22T09:56:47.170Z,2.10
2018-09-22T09:59:15.362Z,1.60
2018-09-22T10:01:43.567Z,1.60
2018-09-22T10:04:11.729Z,1.13
2018-09-22T10:06:39.898Z,1.40
2018-09-22T10:09:08.930Z,1.20
2018-09-22T10:11:37.145Z,0.80
2018-09-22T10:14:05.275Z,1.10
2018-09-22T10:16:33.440Z,1.87
2018-09-22T10:19:01.577Z,1.27
2018-09-22T10:21:29.732Z,1.17
2018-09-22T10:23:57.895Z,1.20
2018-09-22T10:26:26.041Z,1.27
2018-09-22T10:28:54.279Z,1.20
2018-09-22T10:31:22.346Z,1.20
2018-09-22T10:33:50.498Z,1.23
2018-09-22T10:36:18.661Z,1.57
2018-09-22T10:38:47.037Z,1.40
2018-09-22T10:41:15.198Z,1.60
2018-09-22T10:43:43.363Z,1.27
2018-09-22T10:46:11.526Z,1.60
2018-09-22T10:48:39.687Z,1.20
2018-09-22T10:51:07.837Z,1.40
2018-09-22T10:53:35.977Z,1.40
2018-09-22T10:56:04.134Z,1.40
2018-09-22T10:58:32.282Z,1.27
2018-09-22T11:01:00.442Z,1.30
2018-09-22T11:03:28.660Z,1.07
2018-09-22T11:05:56.778Z,1.40
2018-09-22T11:08:24.941Z,1.47
2018-09-22T11:10:53.095Z,1.20
2018-09-22T11:13:21.258Z,1.40
2018-09-22T11:15:49.666Z,1.13
2018-09-22T11:18:17.867Z,1.17
2018-09-22T11:20:46.090Z,1.40
2018-09-22T11:23:14.252Z,1.13
2018-09-22T11:25:42.406Z,1.57
2018-09-22T11:28:10.558Z,1.17
2018-09-22T11:30:38.707Z,1.30
2018-09-22T11:33:06.883Z,1.17
2018-09-22T11:35:35.025Z,1.63
2018-09-22T11:38:03.162Z,1.60
2018-09-22T11:40:31.336Z,1.30
2018-09-22T11:42:59.473Z,1.50
2018-09-22T11:45:27.614Z,1.30
2018-09-22T11:47:55.754Z,1.33
2018-09-22T11:50:23.883Z,1.33
2018-09-22T11:52:52.018Z,1.83
2018-09-22T11:55:20.146Z,1.50
2018-09-22T11:57:48.278Z,1.30
2018-09-22T12:00:16.980Z,1.03
2018-09-22T12:02:45.107Z,1.30
2018-09-22T12:05:13.229Z,1.40
2018-09-22T12:07:41.366Z,1.30
2018-09-22T12:10:09.514Z,1.23
2018-09-22T12:12:37.693Z,1.50
2018-09-22T12:15:05.851Z,1.40
2018-09-22T12:17:34.022Z,1.73
2018-09-22T12:20:02.148Z,1.60
2018-09-22T12:22:30.282Z,1.50
2018-09-22T12:24:58.425Z,1.13
2018-09-22T12:27:26.560Z,1.70
2018-09-22T12:29:54.691Z,1.93
2018-09-22T12:32:22.822Z,1.33
2018-09-22T12:34:50.997Z,1.20
2018-09-22T12:37:19.190Z,1.00
2018-09-22T12:39:47.373Z,1.80
2018-09-22T12:42:15.505Z,1.40
2018-09-22T12:44:43.654Z,1.27
2018-09-22T12:47:11.801Z,1.50
2018-09-22T12:49:39.950Z,0.90
2018-09-22T12:52:08.101Z,1.70
2018-09-22T12:54:36.276Z,1.13
2018-09-22T12:57:04.450Z,1.07
2018-09-22T12:59:32.607Z,1.40
2018-09-22T13:02:00.807Z,1.60
2018-09-22T13:04:28.970Z,1.23
2018-09-22T13:06:57.114Z,1.50
2018-09-22T13:09:25.266Z,1.63
2018-09-22T13:11:53.418Z,1.50
2018-09-22T13:14:21.566Z,1.30
2018-09-22T13:16:49.737Z,1.90
2018-09-22T13:19:17.930Z,1.47
2018-09-22T13:21:46.074Z,1.97
2018-09-22T13:24:14.232Z,1.43
2018-09-22T13:26:42.381Z,1.27
2018-09-22T13:29:10.766Z,1.73
2018-09-22T13:31:38.917Z,1.30
2018-09-22T13:34:07.318Z,1.40
2018-09-22T13:36:35.454Z,1.10
2018-09-22T13:39:04.833Z,1.17
2018-09-22T13:41:32.963Z,1.33
2018-09-22T13:44:01.110Z,1.50
2018-09-22T13:46:29.225Z,1.23
2018-09-22T13:48:57.367Z,1.40
2018-09-22T13:51:25.490Z,1.70
2018-09-22T13:53:53.626Z,2.03
2018-09-22T13:56:21.845Z,1.60
2018-09-22T13:58:49.903Z,1.30
2018-09-22T14:01:18.033Z,1.40
2018-09-22T14:03:46.209Z,1.10
2018-09-22T14:06:14.299Z,1.37
2018-09-22T14:08:42.434Z,1.40
2018-09-22T14:11:10.565Z,1.20
2018-09-22T14:13:38.737Z,1.60
2018-09-22T14:16:06.982Z,1.63
2018-09-22T14:18:35.264Z,1.40
2018-09-22T14:21:03.326Z,1.00
2018-09-22T14:23:31.457Z,1.93
2018-09-22T14:25:59.585Z,1.30
2018-09-22T14:28:27.727Z,1.00
2018-09-22T14:30:55.846Z,1.20
2018-09-22T14:33:23.982Z,1.30
2018-09-22T14:35:52.118Z,1.33
2018-09-22T14:38:20.262Z,1.70
2018-09-22T14:40:48.405Z,1.20
2018-09-22T14:43:16.560Z,1.20
2018-09-22T14:45:44.685Z,1.53
2018-09-22T14:48:12.818Z,1.30
2018-09-22T14:50:40.954Z,1.27
2018-09-22T14:53:09.074Z,1.50
2018-09-22T14:55:37.214Z,1.43
2018-09-22T14:58:05.810Z,1.20
2018-09-22T15:00:33.945Z,1.30
2018-09-22T15:03:02.078Z,1.43
2018-09-22T15:05:30.217Z,1.50
2018-09-22T15:07:58.354Z,1.40
2018-09-22T15:10:26.486Z,0.90
2018-09-22T15:12:54.622Z,1.17
2018-09-22T15:15:22.786Z,1.43
2018-09-22T15:17:50.914Z,1.37
2018-09-22T15:20:19.063Z,1.13
2018-09-22T15:22:47.195Z,1.87
2018-09-22T15:25:15.326Z,1.80
2018-09-22T15:27:43.453Z,1.60
2018-09-22T15:30:11.631Z,1.83
2018-09-22T15:32:39.766Z,1.00
2018-09-22T15:35:08.126Z,1.30
2018-09-22T15:37:36.313Z,1.43
2018-09-22T15:40:04.678Z,1.57
2018-09-22T15:42:32.806Z,1.00
2018-09-22T15:45:00.950Z,1.20
2018-09-22T15:47:29.078Z,1.23
2018-09-22T15:49:57.218Z,2.03
2018-09-22T15:52:25.352Z,1.30
2018-09-22T15:54:53.498Z,1.40
2018-09-22T15:57:21.621Z,1.00
2018-09-22T15:59:49.793Z,1.40
2018-09-22T16:02:17.921Z,1.00
2018-09-22T16:04:46.049Z,1.40
2018-09-22T16:07:14.179Z,1.33
2018-09-22T16:09:42.330Z,1.40
2018-09-22T16:12:10.468Z,1.33
2018-09-22T16:14:38.607Z,1.70
2018-09-22T16:17:06.771Z,1.60
2018-09-22T16:19:34.905Z,1.13
2018-09-22T16:22:03.042Z,1.40
2018-09-22T16:24:31.178Z,1.30
2018-09-22T16:26:59.307Z,1.10
2018-09-22T16:29:27.450Z,1.07
2018-09-22T16:31:55.583Z,2.00
2018-09-22T16:34:23.710Z,1.37
2018-09-22T16:36:51.894Z,1.43
2018-09-22T16:39:20.034Z,1.10
2018-09-22T16:41:48.724Z,1.33
2018-09-22T16:44:16.897Z,1.20
2018-09-22T16:46:45.093Z,1.47
2018-09-22T16:49:13.297Z,1.40
2018-09-22T16:51:41.382Z,1.50
2018-09-22T16:54:09.526Z,1.50
2018-09-22T16:56:37.679Z,1.43
2018-09-22T16:59:05.817Z,1.43
2018-09-22T17:01:33.971Z,2.27
2018-09-22T17:04:02.157Z,1.13
2018-09-22T17:06:30.285Z,1.20
2018-09-22T17:08:58.431Z,1.50
2018-09-22T17:11:26.578Z,1.30
2018-09-22T17:13:54.730Z,1.97
2018-09-22T17:16:22.953Z,1.93
2018-09-22T17:18:51.039Z,1.60
2018-09-22T17:21:19.214Z,1.63
2018-09-22T17:23:47.342Z,1.60
2018-09-22T17:26:15.478Z,2.00
2018-09-22T17:28:43.628Z,1.90
2018-09-22T17:31:11.762Z,1.70
2018-09-22T17:33:39.897Z,1.60
2018-09-22T17:36:08.044Z,1.40
2018-09-22T17:38:36.182Z,1.30
2018-09-22T17:41:04.318Z,1.50
2018-09-22T17:43:32.446Z,1.10
2018-09-22T17:46:00.585Z,1.53
2018-09-22T17:48:28.722Z,1.30
2018-09-22T17:50:56.852Z,1.30
2018-09-22T17:53:25.044Z,1.20
2018-09-22T17:55:53.113Z,1.23
2018-09-22T17:58:21.238Z,1.30
2018-09-22T18:00:49.657Z,1.17
2018-09-22T18:03:17.791Z,1.60
2018-09-22T18:05:46.074Z,1.20
2018-09-22T18:08:14.202Z,1.40
2018-09-22T18:10:42.356Z,1.90
2018-09-22T18:13:10.492Z,1.67
2018-09-22T18:15:38.645Z,1.90
2018-09-22T18:18:06.765Z,1.93
2018-09-22T18:20:34.903Z,2.00
2018-09-22T18:23:03.041Z,2.07
2018-09-22T18:25:31.179Z,1.87
2018-09-22T18:27:59.316Z,1.40
2018-09-22T18:30:27.449Z,1.40
2018-09-22T18:32:55.579Z,1.30
2018-09-22T18:35:23.707Z,1.43
2018-09-22T18:37:51.918Z,1.60
2018-09-22T18:40:20.061Z,1.23
2018-09-22T18:42:48.214Z,1.50
2018-09-22T18:45:16.369Z,1.10
2018-09-22T18:47:44.526Z,1.80
2018-09-22T18:50:12.669Z,1.20
2018-09-22T18:52:40.859Z,1.93
2018-09-22T18:55:08.978Z,2.30
2018-09-22T18:57:37.146Z,2.00
2018-09-22T19:00:05.303Z,2.10
2018-09-22T19:02:33.453Z,2.57
2018-09-22T19:05:01.603Z,1.70
2018-09-22T19:07:30.044Z,3.60
2018-09-22T19:09:58.195Z,3.00
2018-09-22T19:12:26.422Z,2.53
2018-09-22T19:14:59.729Z,1.93
2018-09-22T19:17:31.628Z,1.73
2018-09-22T19:20:07.598Z,1.87
2018-09-22T19:22:47.024Z,1.40
2018-09-22T19:25:17.491Z,1.33
2018-09-22T19:27:54.222Z,1.70
2018-09-22T19:30:27.937Z,1.33
2018-09-22T19:33:01.476Z,1.77
2018-09-22T19:35:33.914Z,1.67
2018-09-22T19:38:06.375Z,1.43
2018-09-22T19:40:38.667Z,1.30
2018-09-22T19:43:13.640Z,1.60
2018-09-22T19:45:45.297Z,1.97
2018-09-22T19:48:26.910Z,1.50
2018-09-22T19:51:03.713Z,1.73
2018-09-22T19:53:31.853Z,1.47
2018-09-22T19:55:59.986Z,1.47
2018-09-22T19:58:28.117Z,1.20
2018-09-22T20:00:56.317Z,1.83
2018-09-22T20:03:24.440Z,1.50
2018-09-22T20:05:52.698Z,1.60
2018-09-22T20:08:20.830Z,1.30
2018-09-22T20:10:48.974Z,1.80
2018-09-22T20:13:17.114Z,1.20
2018-09-22T20:15:45.243Z,1.40
2018-09-22T20:18:13.373Z,1.43
2018-09-22T20:20:41.502Z,2.50
2018-09-22T20:23:09.714Z,3.13
2018-09-22T20:25:37.853Z,2.90
2018-09-22T20:28:06.010Z,3.80
2018-09-22T20:30:34.179Z,3.53
2018-09-22T20:33:02.342Z,2.67
2018-09-22T20:35:30.514Z,5.20
2018-09-22T20:37:58.709Z,4.60
2018-09-22T20:40:26.883Z,3.37
2018-09-22T20:42:55.030Z,3.20
2018-09-22T20:45:23.182Z,3.10
2018-09-22T20:47:51.337Z,3.37
2018-09-22T20:50:19.495Z,3.50
2018-09-22T20:52:47.649Z,4.17
2018-09-22T20:55:15.807Z,2.70
2018-09-22T20:57:43.949Z,1.87
2018-09-22T21:00:12.106Z,1.80
2018-09-22T21:02:40.267Z,1.27
2018-09-22T21:05:08.417Z,1.30
2018-09-22T21:07:37.060Z,1.50
2018-09-22T21:10:05.330Z,1.80
2018-09-22T21:12:33.486Z,1.60
2018-09-22T21:15:01.637Z,1.70
2018-09-22T21:17:29.782Z,1.73
2018-09-22T21:19:57.937Z,1.97
2018-09-22T21:22:26.086Z,1.50
2018-09-22T21:24:54.242Z,1.37
2018-09-22T21:27:22.401Z,1.40
2018-09-22T21:29:50.557Z,1.77
2018-09-22T21:32:18.710Z,1.47
2018-09-22T21:34:46.878Z,1.60
2018-09-22T21:37:15.010Z,1.23
2018-09-22T21:39:43.146Z,1.40
2018-09-22T21:42:11.274Z,1.60
2018-09-22T21:44:39.406Z,1.67
2018-09-22T21:47:07.536Z,1.87
2018-09-22T21:49:35.655Z,1.90
2018-09-22T21:52:03.786Z,1.57
2018-09-22T21:54:31.948Z,2.13
2018-09-22T21:57:00.080Z,1.90
2018-09-22T21:59:29.026Z,1.63
2018-09-22T22:01:57.149Z,2.80
2018-09-22T22:04:25.290Z,1.60
2018-09-22T22:06:53.415Z,2.10
2018-09-22T22:09:21.551Z,1.60
2018-09-22T22:11:49.684Z,1.80
2018-09-22T22:14:17.809Z,2.40
2018-09-22T22:16:45.943Z,1.80
2018-09-22T22:19:14.082Z,1.73
2018-09-22T22:21:42.216Z,1.80
2018-09-22T22:24:10.362Z,1.60
2018-09-22T22:26:38.495Z,1.47
2018-09-22T22:29:06.622Z,1.80
2018-09-22T22:31:34.755Z,1.80
2018-09-22T22:34:02.937Z,1.97
2018-09-22T22:36:31.078Z,2.13
2018-09-22T22:38:59.206Z,1.80
2018-09-22T22:41:27.346Z,2.07
2018-09-22T22:43:55.474Z,2.70
2018-09-22T22:46:23.622Z,2.20
2018-09-22T22:48:51.750Z,2.60
2018-09-22T22:51:19.888Z,2.30
2018-09-22T22:53:48.014Z,1.80
2018-09-22T22:56:16.146Z,1.70
2018-09-22T22:58:44.269Z,2.17
2018-09-22T23:01:12.398Z,2.43
2018-09-22T23:03:40.530Z,2.23
2018-09-22T23:06:08.705Z,2.77
2018-09-22T23:08:36.836Z,2.67
2018-09-22T23:11:04.969Z,2.53
2018-09-22T23:13:33.086Z,2.70
2018-09-22T23:16:01.214Z,3.00
2018-09-22T23:18:29.343Z,2.70
2018-09-22T23:20:57.511Z,2.60
2018-09-22T23:23:25.635Z,2.60
2018-09-22T23:25:53.769Z,2.80
2018-09-22T23:28:21.890Z,2.90
2018-09-22T23:30:50.049Z,2.90
2018-09-22T23:33:18.219Z,2.50
2018-09-22T23:35:46.347Z,3.40
2018-09-22T23:38:14.499Z,2.83
2018-09-22T23:40:42.650Z,2.63
2018-09-22T23:43:10.798Z,2.93
2018-09-22T23:45:38.945Z,2.90
2018-09-22T23:48:07.107Z,2.40
2018-09-22T23:50:35.312Z,2.87
2018-09-22T23:53:03.531Z,3.17
2018-09-22T23:55:31.671Z,2.13
2018-09-22T23:57:59.809Z,2.80
